Dayton, OH (45431)

5:31 PM EDT on July 24, 2016 (GMT -0400)
Gardenview | | Change Station
Active Advisory: Heat Advisory Active Notice: Public Information Statement

Elev 958 ft 39.76 °N, 84.08 °W | Updated 1 minute ago

Clear
Clear
93.9 °F
Feels Like 106 °F
N
0.0
Wind Variable Wind from SSE

Today
High -- | Low -- °F
--% Chance of Precip.
Yesterday
High -- | Low -- °F
Precip. -- in
Pressure 29.97 in
Visibility 10.0 miles
Clouds Clear
Heat Index 106 °F
Dew Point 75 °F
Humidity 55%
Rainfall 0.00 in
Snow Depth Not available.
6:28 AM 8:56 PM
Waning Gibbous, 73% visible
METAR KFFO 242058Z AUTO 28009KT 10SM CLR 34/23 A2998 RMK AO2 SLP147 T03350233 56009 CHINO RWY05L
Pressure 29.97 in
Visibility 10.0 miles
Clouds Clear
Heat Index 106 °F
Dew Point 75 °F
Humidity 55%
Rainfall 0.00 in
Snow Depth Not available.
6:28 AM 8:56 PM
Waning Gibbous, 73% visible
METAR KFFO 242058Z AUTO 28009KT 10SM CLR 34/23 A2998 RMK AO2 SLP147 T03350233 56009 CHINO RWY05L

10-Day Weather Forecast

Almanac

Astronomy

Jul. 24, 2016 Rise Set
Actual Time
Civil Twilight
Nautical Twilight
Astronomical Twilight
Moon
Length of Visible Light
Length of Day
Tomorrow will be .
, % of the Moon is Illuminated

Today's Extremes

State Highs State Lows

Community

WunderPhotos

Upload Photos

1,927,193 photos uploaded!

WunderBlog® & News

Nearby

Air Quality

  Air Quality AQ Index Pollutant
Not available.

Snow Depth

Station Depth Elevation

Earthquake Activity

City Distance Mag. Time & Date
Minimum magnitude displayed is 2.5.

Coastal Water Temperatures

Place Temperature

Stations

Nearby Weather Stations

Station Location Temp. Windchill Dew Point Humidity Wind Precip. Elev Updated Type
                   

Watches & Warnings

Heat Advisory
Issued: 5:06 PM EDT Jul. 24, 2016 – National Weather Service

... Heat advisory remains in effect until 8 PM EDT this evening...

* heat index values... 100 to 104 due to temperatures in the lower
90s... and dewpoints in the lower to mid 70s.

* Timing... highest temperatures and heat indices will occur
through the early evening hours.

* Impacts... heat stroke... heat exhaustion and other heat related
illnesses will be possible... especially if you spend a
significant amount of time outdoors... or are involved in any
strenuous outdoor activity.

Precautionary/preparedness actions...

Reduce outdoor activities... especially from mid-morning through
the afternoon. Wear light weight and loose fitting clothing and
drink plenty of water. If possible... spend more time in air
conditioned or well ventilated places.

To reduce risk during outdoor work the occupational safety and
health administration recommends scheduling frequent rest breaks
in shaded or air conditioned environments. Anyone overcome by
heat should be moved to a cool and shaded location. Heat stroke
is an emergency... call 911.